createdAt,value
2018-07-09T00:01:02.936Z,100759.55
2018-07-09T00:03:31.532Z,100755.90
2018-07-09T00:06:00.128Z,100755.77
2018-07-09T00:08:28.740Z,100750.20
2018-07-09T00:11:00.172Z,100753.80
2018-07-09T00:13:29.348Z,100755.05
2018-07-09T00:15:58.464Z,100764.92
2018-07-09T00:18:27.140Z,100759.67
2018-07-09T00:20:55.728Z,100756.70
2018-07-09T00:23:24.268Z,100752.56
2018-07-09T00:25:53.637Z,100753.04
2018-07-09T00:28:22.976Z,100755.18
2018-07-09T00:30:51.625Z,100753.97
2018-07-09T00:33:20.767Z,100751.77
2018-07-09T00:35:49.636Z,100756.61
2018-07-09T00:38:18.864Z,100757.91
2018-07-09T00:40:47.544Z,100749.98
2018-07-09T00:43:16.193Z,100751.08
2018-07-09T00:45:45.184Z,100753.95
2018-07-09T00:48:13.720Z,100749.93
2018-07-09T00:50:42.468Z,100743.63
2018-07-09T00:53:11.210Z,100750.84
2018-07-09T00:55:39.841Z,100745.66
2018-07-09T00:58:09.360Z,100744.72
2018-07-09T01:00:38.072Z,100747.77
2018-07-09T01:03:06.785Z,100749.43
2018-07-09T01:05:35.358Z,100747.95
2018-07-09T01:08:03.967Z,100746.09
2018-07-09T01:10:32.632Z,100749.82
2018-07-09T01:13:01.302Z,100753.53
2018-07-09T01:15:29.945Z,100752.45
2018-07-09T01:17:58.524Z,100746.50
2018-07-09T01:20:28.324Z,100747.66
2018-07-09T01:22:56.932Z,100747.06
2018-07-09T01:25:25.517Z,100744.08
2018-07-09T01:27:54.297Z,100741.14
2018-07-09T01:30:22.918Z,100739.02
2018-07-09T01:32:51.608Z,100742.02
2018-07-09T01:35:20.224Z,100743.30
2018-07-09T01:37:48.802Z,100738.86
2018-07-09T01:40:17.360Z,100741.16
2018-07-09T01:42:45.904Z,100738.40
2018-07-09T01:45:14.555Z,100739.27
2018-07-09T01:47:43.104Z,100740.61
2018-07-09T01:50:11.735Z,100743.55
2018-07-09T01:52:40.330Z,100735.16
2018-07-09T01:55:08.932Z,100738.33
2018-07-09T01:57:37.492Z,100738.59
2018-07-09T02:00:06.113Z,100746.94
2018-07-09T02:02:34.836Z,100747.79
2018-07-09T02:05:03.489Z,100737.36
2018-07-09T02:07:32.100Z,100747.73
2018-07-09T02:10:00.728Z,100734.95
2018-07-09T02:12:29.275Z,100739.19
2018-07-09T02:14:57.786Z,100735.62
2018-07-09T02:17:26.365Z,100733.03
2018-07-09T02:19:54.984Z,100736.69
2018-07-09T02:22:23.557Z,100738.50
2018-07-09T02:24:52.232Z,100741.41
2018-07-09T02:27:20.980Z,100744.23
2018-07-09T02:29:49.688Z,100739.95
2018-07-09T02:32:18.271Z,100747.34
2018-07-09T02:34:47.308Z,100747.08
2018-07-09T02:37:15.984Z,100752.84
2018-07-09T02:39:44.548Z,100754.77
2018-07-09T02:42:13.127Z,100755.06
2018-07-09T02:44:41.778Z,100752.73
2018-07-09T02:47:10.613Z,100749.56
2018-07-09T02:49:39.152Z,100748.37
2018-07-09T02:52:07.720Z,100752.84
2018-07-09T02:54:36.415Z,100756.11
2018-07-09T02:57:05.065Z,100767.71
2018-07-09T02:59:33.901Z,100759.83
2018-07-09T03:02:02.550Z,100767.61
2018-07-09T03:04:31.156Z,100765.22
2018-07-09T03:06:59.860Z,100757.22
2018-07-09T03:09:28.428Z,100765.56
2018-07-09T03:11:56.968Z,100763.89
2018-07-09T03:14:25.540Z,100765.56
2018-07-09T03:16:54.121Z,100769.40
2018-07-09T03:19:22.788Z,100767.41
2018-07-09T03:21:51.412Z,100774.73
2018-07-09T03:24:20.029Z,100775.83
2018-07-09T03:26:48.840Z,100769.20
2018-07-09T03:29:17.449Z,100771.19
2018-07-09T03:31:46.147Z,100770.64
2018-07-09T03:34:14.720Z,100775.49
2018-07-09T03:36:43.566Z,100771.31
2018-07-09T03:39:12.100Z,100764.36
2018-07-09T03:41:40.664Z,100763.58
2018-07-09T03:44:09.316Z,100770.50
2018-07-09T03:46:37.892Z,100768.17
2018-07-09T03:49:06.616Z,100769.57
2018-07-09T03:51:35.300Z,100774.31
2018-07-09T03:54:03.880Z,100777.77
2018-07-09T03:56:32.556Z,100772.19
2018-07-09T03:59:01.184Z,100770.62
2018-07-09T04:01:30.026Z,100773.52
2018-07-09T04:03:58.557Z,100770.33
2018-07-09T04:06:27.200Z,100777.42
2018-07-09T04:08:55.841Z,100781.84
2018-07-09T04:11:24.817Z,100779.58
2018-07-09T04:13:53.521Z,100777.88
2018-07-09T04:16:22.117Z,100777.20
2018-07-09T04:18:50.693Z,100772.84
2018-07-09T04:21:19.288Z,100778.92
2018-07-09T04:23:47.865Z,100772.84
2018-07-09T04:26:16.504Z,100770.91
2018-07-09T04:28:45.019Z,100769.84
2018-07-09T04:31:13.640Z,100770.00
2018-07-09T04:33:42.264Z,100780.45
2018-07-09T04:36:10.856Z,100772.19
2018-07-09T04:38:39.544Z,100780.96
2018-07-09T04:41:08.206Z,100781.47
2018-07-09T04:43:36.952Z,100778.97
2018-07-09T04:46:06.120Z,100777.81
2018-07-09T04:48:34.749Z,100775.86
2018-07-09T04:51:03.789Z,100777.77
2018-07-09T04:53:32.385Z,100775.13
2018-07-09T04:56:00.884Z,100779.26
2018-07-09T04:58:29.610Z,100769.89
2018-07-09T05:00:58.228Z,100769.74
2018-07-09T05:03:26.999Z,100772.55
2018-07-09T05:05:55.651Z,100771.91
2018-07-09T05:08:24.220Z,100766.91
2018-07-09T05:10:52.816Z,100763.83
2018-07-09T05:13:21.421Z,100768.33
2018-07-09T05:15:49.940Z,100767.58
2018-07-09T05:18:18.525Z,100763.09
2018-07-09T05:20:47.121Z,100762.81
2018-07-09T05:23:18.244Z,100762.27
2018-07-09T05:25:46.856Z,100760.31
2018-07-09T05:28:15.420Z,100758.85
2018-07-09T05:30:43.971Z,100758.64
2018-07-09T05:33:12.574Z,100749.34
2018-07-09T05:35:41.292Z,100760.55
2018-07-09T05:38:09.845Z,100759.94
2018-07-09T05:40:38.568Z,100758.23
2018-07-09T05:43:07.464Z,100754.14
2018-07-09T05:45:36.137Z,100762.66
2018-07-09T05:48:05.748Z,100758.88
2018-07-09T05:50:34.609Z,100758.84
2018-07-09T05:53:03.411Z,100763.41
2018-07-09T05:55:31.978Z,100767.28
2018-07-09T05:58:00.612Z,100760.09
2018-07-09T06:00:29.187Z,100764.94
2018-07-09T06:02:57.776Z,100765.36
2018-07-09T06:05:26.410Z,100766.77
2018-07-09T06:07:55.062Z,100766.00
2018-07-09T06:10:23.640Z,100770.86
2018-07-09T06:12:52.217Z,100765.31
2018-07-09T06:15:20.806Z,100768.52
2018-07-09T06:17:49.397Z,100770.05
2018-07-09T06:20:18.100Z,100762.45
2018-07-09T06:22:46.748Z,100763.89
2018-07-09T06:25:15.360Z,100765.20
2018-07-09T06:27:43.960Z,100769.25
2018-07-09T06:30:12.792Z,100763.17
2018-07-09T06:32:41.360Z,100768.27
2018-07-09T06:35:10.068Z,100763.95
2018-07-09T06:37:38.657Z,100767.30
2018-07-09T06:40:07.293Z,100765.70
2018-07-09T06:42:35.885Z,100765.33
2018-07-09T06:45:04.566Z,100771.97
2018-07-09T06:47:33.220Z,100770.48
2018-07-09T06:50:02.204Z,100768.36
2018-07-09T06:52:30.812Z,100775.33
2018-07-09T06:54:59.752Z,100772.95
2018-07-09T06:57:28.448Z,100775.05
2018-07-09T06:59:57.032Z,100773.47
2018-07-09T07:02:25.712Z,100774.47
2018-07-09T07:04:54.212Z,100778.30
2018-07-09T07:07:22.861Z,100773.34
2018-07-09T07:09:51.448Z,100772.23
2018-07-09T07:12:19.972Z,100766.56
2018-07-09T07:14:48.612Z,100768.53
2018-07-09T07:17:17.190Z,100765.39
2018-07-09T07:19:45.924Z,100757.77
2018-07-09T07:22:14.472Z,100756.66
2018-07-09T07:24:42.993Z,100764.95
2018-07-09T07:27:11.581Z,100765.33
2018-07-09T07:29:40.180Z,100761.74
2018-07-09T07:32:09.004Z,100762.98
2018-07-09T07:34:37.634Z,100770.23
2018-07-09T07:37:06.344Z,100767.86
2018-07-09T07:39:34.992Z,100765.98
2018-07-09T07:42:03.753Z,100780.05
2018-07-09T07:44:32.404Z,100768.91
2018-07-09T07:47:00.988Z,100771.63
2018-07-09T07:49:29.587Z,100774.31
2018-07-09T07:51:58.172Z,100773.45
2018-07-09T07:54:26.782Z,100766.31
2018-07-09T07:56:55.396Z,100768.91
2018-07-09T07:59:23.940Z,100768.16
2018-07-09T08:01:52.637Z,100764.61
2018-07-09T08:04:21.268Z,100761.36
2018-07-09T08:06:49.858Z,100757.80
2018-07-09T08:09:18.508Z,100759.04
2018-07-09T08:11:49.258Z,100765.80
2018-07-09T08:14:15.761Z,100765.44
2018-07-09T08:16:44.464Z,100759.46
2018-07-09T08:19:13.024Z,100758.84
2018-07-09T08:21:41.605Z,100759.70
2018-07-09T08:24:10.256Z,100757.83
2018-07-09T08:26:38.802Z,100761.48
2018-07-09T08:29:07.435Z,100760.16
2018-07-09T08:31:36.108Z,100763.22
2018-07-09T08:34:04.881Z,100753.69
2018-07-09T08:36:33.535Z,100761.04
2018-07-09T08:39:02.588Z,100758.98
2018-07-09T08:41:31.219Z,100760.11
2018-07-09T08:43:59.810Z,100756.13
2018-07-09T08:46:28.461Z,100753.95
2018-07-09T08:48:57.093Z,100753.95
2018-07-09T08:51:25.696Z,100749.98
2018-07-09T08:53:54.304Z,100753.34
2018-07-09T08:56:22.824Z,100746.41
2018-07-09T08:58:51.409Z,100751.47
2018-07-09T09:01:20.160Z,100752.97
2018-07-09T09:03:48.900Z,100749.15
2018-07-09T09:06:17.636Z,100747.15
2018-07-09T09:08:46.164Z,100742.70
2018-07-09T09:11:14.890Z,100736.74
2018-07-09T09:13:43.576Z,100743.82
2018-07-09T09:16:12.088Z,100740.72
2018-07-09T09:18:40.704Z,100744.33
2018-07-09T09:21:09.572Z,100746.66
2018-07-09T09:23:38.405Z,100749.37
2018-07-09T09:26:06.973Z,100736.00
2018-07-09T09:28:35.552Z,100737.00
2018-07-09T09:31:04.295Z,100734.88
2018-07-09T09:33:32.856Z,100730.34
2018-07-09T09:36:01.479Z,100725.70
2018-07-09T09:38:30.050Z,100726.20
2018-07-09T09:40:58.682Z,100718.66
2018-07-09T09:43:27.356Z,100722.43
2018-07-09T09:45:55.867Z,100717.23
2018-07-09T09:48:24.453Z,100714.02
2018-07-09T09:50:52.965Z,100719.70
2018-07-09T09:53:21.524Z,100715.29
2018-07-09T09:55:50.185Z,100705.69
2018-07-09T09:58:18.816Z,100707.63
2018-07-09T10:00:50.934Z,100703.27
2018-07-09T10:03:19.830Z,100701.25
2018-07-09T10:05:49.020Z,100700.00
2018-07-09T10:08:17.647Z,100696.16
2018-07-09T10:10:46.412Z,100685.34
2018-07-09T10:13:15.552Z,100686.58
2018-07-09T10:15:44.088Z,100691.61
2018-07-09T10:18:12.636Z,100679.88
2018-07-09T10:20:41.345Z,100680.00
2018-07-09T10:23:10.167Z,100677.78
2018-07-09T10:25:38.836Z,100674.55
2018-07-09T10:28:07.430Z,100679.25
2018-07-09T10:30:36.077Z,100677.03
2018-07-09T10:33:04.650Z,100676.46
2018-07-09T10:35:33.296Z,100672.11
2018-07-09T10:38:02.148Z,100673.22
2018-07-09T10:40:30.700Z,100675.09
2018-07-09T10:42:59.285Z,100672.73
2018-07-09T10:45:27.908Z,100668.45
2018-07-09T10:47:56.477Z,100667.22
2018-07-09T10:50:25.209Z,100660.42
2018-07-09T10:52:53.837Z,100667.05
2018-07-09T10:55:22.584Z,100656.94
2018-07-09T10:57:51.112Z,100649.50
2018-07-09T11:00:19.796Z,100648.11
2018-07-09T11:02:48.816Z,100642.79
2018-07-09T11:05:17.530Z,100640.20
2018-07-09T11:07:46.044Z,100630.45
2018-07-09T11:10:14.656Z,100641.06
2018-07-09T11:12:43.265Z,100632.45
2018-07-09T11:15:11.988Z,100637.06
2018-07-09T11:17:40.569Z,100634.89
2018-07-09T11:20:09.156Z,100629.23
2018-07-09T11:22:37.862Z,100633.97
2018-07-09T11:25:06.556Z,100626.13
2018-07-09T11:27:35.156Z,100629.58
2018-07-09T11:30:03.896Z,100630.56
2018-07-09T11:32:32.550Z,100629.94
2018-07-09T11:35:01.261Z,100630.95
2018-07-09T11:37:30.465Z,100627.70
2018-07-09T11:39:59.496Z,100634.02
2018-07-09T11:42:28.115Z,100629.01
2018-07-09T11:44:56.709Z,100640.91
2018-07-09T11:47:25.265Z,100625.60
2018-07-09T11:49:53.837Z,100634.39
2018-07-09T11:52:22.429Z,100627.97
2018-07-09T11:54:51.078Z,100628.00
2018-07-09T11:57:19.649Z,100616.89
2018-07-09T11:59:48.232Z,100619.17
2018-07-09T12:02:16.788Z,100620.05
2018-07-09T12:04:45.583Z,100620.55
2018-07-09T12:07:14.137Z,100623.09
2018-07-09T12:09:42.669Z,100622.23
2018-07-09T12:12:11.339Z,100639.88
2018-07-09T12:14:40.005Z,100619.86
2018-07-09T12:17:08.550Z,100623.08
2018-07-09T12:19:37.121Z,100617.34
2018-07-09T12:22:05.931Z,100616.71
2018-07-09T12:24:34.524Z,100612.99
2018-07-09T12:27:03.225Z,100605.49
2018-07-09T12:29:31.960Z,100589.03
2018-07-09T12:32:00.584Z,100603.69
2018-07-09T12:34:29.304Z,100599.77
2018-07-09T12:36:57.940Z,100609.37
2018-07-09T12:39:26.472Z,100608.34
2018-07-09T12:41:55.137Z,100599.64
2018-07-09T12:44:24.220Z,100601.98
2018-07-09T12:46:52.764Z,100610.00
2018-07-09T12:49:21.348Z,100605.03
2018-07-09T12:51:49.880Z,100594.35
2018-07-09T12:54:18.623Z,100594.02
2018-07-09T12:56:47.288Z,100596.20
2018-07-09T12:59:15.907Z,100594.48
2018-07-09T13:01:44.528Z,100603.88
2018-07-09T13:04:13.080Z,100590.28
2018-07-09T13:06:42.421Z,100588.73
2018-07-09T13:09:10.996Z,100587.28
2018-07-09T13:11:39.797Z,100585.61
2018-07-09T13:14:08.496Z,100591.48
2018-07-09T13:16:37.064Z,100590.09
2018-07-09T13:19:06.112Z,100581.66
2018-07-09T13:21:34.697Z,100585.30
2018-07-09T13:24:03.305Z,100581.08
2018-07-09T13:26:31.940Z,100575.87
2018-07-09T13:29:00.753Z,100572.25
2018-07-09T13:31:30.088Z,100569.35
2018-07-09T13:33:58.836Z,100569.42
2018-07-09T13:36:27.692Z,100572.39
2018-07-09T13:38:56.348Z,100573.11
2018-07-09T13:41:25.024Z,100569.31
2018-07-09T13:43:53.745Z,100569.00
2018-07-09T13:46:22.432Z,100574.23
2018-07-09T13:48:51.212Z,100567.47
2018-07-09T13:51:19.833Z,100563.70
2018-07-09T13:53:49.045Z,100566.50
2018-07-09T13:56:17.708Z,100572.59
2018-07-09T13:58:46.388Z,100573.45
2018-07-09T14:01:15.002Z,100565.92
2018-07-09T14:03:43.692Z,100554.63
2018-07-09T14:06:12.280Z,100561.17
2018-07-09T14:08:40.867Z,100546.30
2018-07-09T14:11:09.412Z,100545.91
2018-07-09T14:13:38.256Z,100543.56
2018-07-09T14:16:06.873Z,100549.84
2018-07-09T14:18:35.468Z,100538.64
2018-07-09T14:21:04.161Z,100539.70
2018-07-09T14:23:32.805Z,100535.59
2018-07-09T14:26:01.332Z,100541.47
2018-07-09T14:28:30.024Z,100527.66
2018-07-09T14:30:58.619Z,100531.66
2018-07-09T14:33:27.392Z,100537.12
2018-07-09T14:35:55.960Z,100540.45
2018-07-09T14:38:24.516Z,100545.16
2018-07-09T14:40:53.057Z,100531.97
2018-07-09T14:43:21.732Z,100535.05
2018-07-09T14:45:50.672Z,100530.03
2018-07-09T14:48:19.261Z,100526.25
2018-07-09T14:50:47.928Z,100525.80
2018-07-09T14:53:16.613Z,100522.36
2018-07-09T14:55:45.212Z,100533.02
2018-07-09T14:58:14.036Z,100521.14
2018-07-09T15:00:42.688Z,100518.08
2018-07-09T15:03:11.307Z,100523.67
2018-07-09T15:05:39.923Z,100524.20
2018-07-09T15:08:08.628Z,100521.53
2018-07-09T15:10:37.351Z,100515.73
2018-07-09T15:13:06.024Z,100523.22
2018-07-09T15:15:34.736Z,100513.38
2018-07-09T15:18:03.564Z,100512.30
2018-07-09T15:20:32.096Z,100509.45
2018-07-09T15:23:01.182Z,100501.33
2018-07-09T15:25:29.823Z,100509.04
2018-07-09T15:27:58.401Z,100506.02
2018-07-09T15:30:27.084Z,100505.21
2018-07-09T15:32:55.725Z,100500.32
2018-07-09T15:35:24.301Z,100500.97
2018-07-09T15:37:52.857Z,100499.01
2018-07-09T15:40:21.380Z,100498.14
2018-07-09T15:42:49.921Z,100487.47
2018-07-09T15:45:18.500Z,100486.36
2018-07-09T15:47:47.322Z,100487.61
2018-07-09T15:50:15.952Z,100483.22
2018-07-09T15:52:44.712Z,100484.98
2018-07-09T15:55:13.393Z,100479.83
2018-07-09T15:57:41.984Z,100489.48
2018-07-09T16:00:10.746Z,100477.45
2018-07-09T16:02:39.256Z,100475.59
2018-07-09T16:05:07.888Z,100463.62
2018-07-09T16:07:36.442Z,100471.30
2018-07-09T16:10:05.144Z,100465.93
2018-07-09T16:12:33.740Z,100465.17
2018-07-09T16:15:02.420Z,100464.01
2018-07-09T16:17:31.060Z,100458.04
2018-07-09T16:19:59.628Z,100451.42
2018-07-09T16:22:28.259Z,100454.78
2018-07-09T16:24:56.893Z,100450.55
2018-07-09T16:27:25.428Z,100448.92
2018-07-09T16:29:54.124Z,100448.28
2018-07-09T16:32:22.761Z,100442.16
2018-07-09T16:34:51.312Z,100450.02
2018-07-09T16:37:19.979Z,100451.42
2018-07-09T16:39:48.528Z,100443.80
2018-07-09T16:42:17.146Z,100448.39
2018-07-09T16:44:45.856Z,100451.04
2018-07-09T16:47:14.400Z,100455.52
2018-07-09T16:49:43.088Z,100456.64
2018-07-09T16:52:11.727Z,100449.06
2018-07-09T16:54:40.373Z,100447.26
2018-07-09T16:57:08.901Z,100447.38
2018-07-09T16:59:37.454Z,100444.09
2018-07-09T17:02:06.556Z,100449.27
2018-07-09T17:04:35.061Z,100459.88
2018-07-09T17:07:03.644Z,100451.50
2018-07-09T17:09:32.263Z,100452.06
2018-07-09T17:12:00.800Z,100456.12
2018-07-09T17:14:29.416Z,100458.20
2018-07-09T17:16:58.041Z,100453.33
2018-07-09T17:19:26.670Z,100453.28
2018-07-09T17:21:55.291Z,100457.06
2018-07-09T17:24:23.904Z,100458.08
2018-07-09T17:26:52.908Z,100449.11
2018-07-09T17:29:21.435Z,100464.81
2018-07-09T17:31:50.024Z,100459.66
2018-07-09T17:34:18.628Z,100461.88
2018-07-09T17:36:47.303Z,100470.23
2018-07-09T17:39:16.418Z,100462.13
2018-07-09T17:41:45.117Z,100463.28
2018-07-09T17:44:13.761Z,100475.51
2018-07-09T17:46:42.301Z,100467.70
2018-07-09T17:49:11.009Z,100473.65
2018-07-09T17:51:39.696Z,100473.00
2018-07-09T17:54:08.253Z,100473.95
2018-07-09T17:56:36.800Z,100479.05
2018-07-09T17:59:05.545Z,100476.68
2018-07-09T18:01:34.178Z,100479.66
2018-07-09T18:04:03.116Z,100473.00
2018-07-09T18:06:31.753Z,100471.36
2018-07-09T18:09:00.332Z,100472.20
2018-07-09T18:11:29.396Z,100471.56
2018-07-09T18:13:57.986Z,100465.00
2018-07-09T18:16:26.580Z,100465.66
2018-07-09T18:18:55.536Z,100465.23
2018-07-09T18:21:24.306Z,100461.28
2018-07-09T18:23:52.866Z,100457.91
2018-07-09T18:26:21.466Z,100455.48
2018-07-09T18:28:50.120Z,100447.69
2018-07-09T18:31:18.652Z,100446.89
2018-07-09T18:33:47.578Z,100452.86
2018-07-09T18:36:16.084Z,100451.11
2018-07-09T18:38:44.819Z,100455.06
2018-07-09T18:41:13.264Z,100445.30
2018-07-09T18:43:41.808Z,100447.25
2018-07-09T18:46:10.425Z,100441.66
2018-07-09T18:48:53.703Z,100451.55
2018-07-09T18:51:22.253Z,100451.17
2018-07-09T18:53:50.860Z,100449.88
2018-07-09T18:56:19.572Z,100449.52
2018-07-09T18:58:48.148Z,100454.33
2018-07-09T19:01:16.679Z,100454.13
2018-07-09T19:03:45.424Z,100451.50
2018-07-09T19:07:29.669Z,100454.36
2018-07-09T19:09:58.628Z,100456.59
2018-07-09T19:12:34.056Z,100450.28
2018-07-09T19:15:03.226Z,100445.48
2018-07-09T19:18:10.021Z,100447.58
2018-07-09T19:21:22.668Z,100449.41
2018-07-09T19:23:50.263Z,100458.92
2018-07-09T19:26:17.543Z,100463.77
2018-07-09T19:28:44.848Z,100463.15
2018-07-09T19:31:12.532Z,100464.16
2018-07-09T19:33:40.500Z,100464.55
2018-07-09T19:36:08.300Z,100471.33
2018-07-09T19:38:36.164Z,100474.41
2018-07-09T19:41:03.452Z,100471.56
2018-07-09T19:43:31.007Z,100468.13
2018-07-09T19:45:58.736Z,100463.89
2018-07-09T19:48:25.991Z,100463.61
2018-07-09T19:50:53.387Z,100464.97
2018-07-09T19:53:20.756Z,100469.19
2018-07-09T19:55:48.066Z,100466.84
2018-07-09T19:58:15.346Z,100471.14
2018-07-09T20:00:43.112Z,100473.83
2018-07-09T20:03:10.644Z,100476.42
2018-07-09T20:05:37.904Z,100475.34
2018-07-09T20:08:06.048Z,100476.14
2018-07-09T20:10:38.484Z,100472.94
2018-07-09T20:13:11.136Z,100475.22
2018-07-09T20:16:45.667Z,100477.16
2018-07-09T20:19:13.037Z,100473.83
2018-07-09T20:21:40.344Z,100480.91
2018-07-09T20:24:07.621Z,100479.55
2018-07-09T20:26:34.967Z,100477.30
2018-07-09T20:29:02.300Z,100474.35
2018-07-09T20:31:29.582Z,100479.10
2018-07-09T20:33:57.005Z,100480.94
2018-07-09T20:36:24.328Z,100488.66
2018-07-09T20:38:51.631Z,100488.40
2018-07-09T20:41:18.968Z,100484.76
2018-07-09T20:43:46.240Z,100483.53
2018-07-09T20:46:13.640Z,100486.67
2018-07-09T20:48:40.939Z,100488.58
2018-07-09T20:51:08.209Z,100483.45
2018-07-09T20:53:35.525Z,100483.81
2018-07-09T20:56:02.834Z,100479.23
2018-07-09T20:58:30.598Z,100476.59
2018-07-09T21:00:57.924Z,100478.78
2018-07-09T21:03:25.213Z,100473.97
2018-07-09T21:05:52.508Z,100475.23
2018-07-09T21:08:19.936Z,100468.89
2018-07-09T21:10:47.441Z,100469.12
2018-07-09T21:13:14.712Z,100471.20
2018-07-09T21:15:42.074Z,100475.69
2018-07-09T21:18:09.321Z,100471.32
2018-07-09T21:20:36.592Z,100465.79
2018-07-09T21:23:03.892Z,100469.12
2018-07-09T21:25:31.200Z,100465.33
2018-07-09T21:27:58.476Z,100460.70
2018-07-09T21:30:25.781Z,100460.48
2018-07-09T21:32:53.049Z,100453.72
2018-07-09T21:35:20.376Z,100460.34
2018-07-09T21:37:47.836Z,100456.25
2018-07-09T21:40:15.005Z,100451.30
2018-07-09T21:42:42.305Z,100454.61
2018-07-09T21:45:09.572Z,100452.16
2018-07-09T21:47:37.119Z,100455.13
2018-07-09T21:50:04.384Z,100452.08
2018-07-09T21:52:31.657Z,100447.39
2018-07-09T21:54:59.000Z,100446.75
2018-07-09T21:57:26.281Z,100443.33
2018-07-09T21:59:53.608Z,100442.17
2018-07-09T22:02:20.872Z,100435.15
2018-07-09T22:04:48.149Z,100439.41
2018-07-09T22:07:15.452Z,100438.59
2018-07-09T22:09:42.737Z,100440.73
2018-07-09T22:12:10.299Z,100429.81
2018-07-09T22:14:37.580Z,100431.12
2018-07-09T22:17:04.870Z,100429.88
2018-07-09T22:19:32.198Z,100431.41
2018-07-09T22:21:59.557Z,100435.43
2018-07-09T22:24:26.868Z,100430.59
2018-07-09T22:26:54.140Z,100431.03
2018-07-09T22:29:21.429Z,100434.45
2018-07-09T22:31:50.114Z,100434.34
2018-07-09T22:34:18.720Z,100422.70
2018-07-09T22:36:47.420Z,100426.48
2018-07-09T22:39:15.957Z,100425.77
2018-07-09T22:41:44.462Z,100422.05
2018-07-09T22:44:18.840Z,100425.59
2018-07-09T22:46:47.832Z,100419.31
2018-07-09T22:49:16.384Z,100422.19
2018-07-09T22:51:45.433Z,100423.66
2018-07-09T22:54:14.137Z,100421.09
2018-07-09T22:56:42.824Z,100420.95
2018-07-09T22:59:11.412Z,100428.18
2018-07-09T23:01:40.251Z,100424.61
2018-07-09T23:04:08.824Z,100416.33
2018-07-09T23:06:37.700Z,100418.20
2018-07-09T23:13:31.680Z,100416.90
2018-07-09T23:16:43.201Z,100412.40
2018-07-09T23:19:24.496Z,100416.28
2018-07-09T23:22:04.154Z,100403.48
2018-07-09T23:24:31.452Z,100408.33
2018-07-09T23:26:58.732Z,100408.65
2018-07-09T23:29:26.029Z,100415.01
2018-07-09T23:31:53.340Z,100414.31
2018-07-09T23:34:20.845Z,100407.19
2018-07-09T23:36:48.183Z,100408.28
2018-07-09T23:39:15.496Z,100406.87
2018-07-09T23:41:42.759Z,100405.33
2018-07-09T23:44:10.064Z,100401.83
2018-07-09T23:46:37.330Z,100401.08
2018-07-09T23:49:04.768Z,100409.28
2018-07-09T23:51:32.066Z,100399.35
2018-07-09T23:53:59.399Z,100399.73
2018-07-09T23:59:44.408Z,100399.37
